Time;durP1;ratioP1;P1;durP2;ratioP2;P2;SDS_P1;SDS_P2;PMS_P1;PMS_P2;Temp;Humidity;BMP_temperature;BMP_pressure;BME280_temperature;BME280_humidity;BME280_pressure;Samples;Min_cycle;Max_cycle;Signal;HPM_P1;HPM_P2
2022/04/22 00:01:26;;;;;;;9.60;7.07;;;6.20;47.20;;;;;;5029330;28;46934;-63
2022/04/22 00:03:52;;;;;;;13.13;7.57;;;6.20;47.30;;;;;;5029617;28;46351;-63
2022/04/22 00:06:18;;;;;;;10.87;7.40;;;6.20;47.20;;;;;;5031383;28;46333;-63
2022/04/22 00:08:43;;;;;;;10.37;7.40;;;6.20;47.20;;;;;;5031081;28;46566;-64
2022/04/22 00:13:55;;;;;;;9.43;6.90;;;6.20;47.20;;;;;;5027086;28;46367;-64
2022/04/22 00:16:21;;;;;;;12.53;7.60;;;6.10;47.20;;;;;;5029981;28;46860;-64
2022/04/22 00:18:47;;;;;;;10.30;7.27;;;6.10;47.50;;;;;;5032039;28;46516;-63
2022/04/22 00:21:13;;;;;;;12.13;7.17;;;6.10;47.80;;;;;;5031985;28;46937;-64
2022/04/22 00:23:39;;;;;;;11.50;7.53;;;6.00;47.90;;;;;;5025482;28;45847;-63
2022/04/22 00:26:04;;;;;;;19.13;10.90;;;6.10;48.10;;;;;;5033774;28;46346;-64
2022/04/22 00:28:30;;;;;;;20.80;12.13;;;6.10;48.10;;;;;;5035783;28;46390;-64
2022/04/22 00:30:56;;;;;;;16.10;10.20;;;6.00;48.10;;;;;;5031802;28;46022;-63
2022/04/22 00:33:22;;;;;;;12.63;9.30;;;6.00;48.30;;;;;;5033818;28;46316;-64
2022/04/22 00:35:48;;;;;;;11.57;7.83;;;6.00;48.30;;;;;;5035015;28;46615;-64
2022/04/22 00:38:14;;;;;;;11.03;7.97;;;5.90;48.30;;;;;;5029710;28;46311;-64
2022/04/22 00:40:40;;;;;;;13.30;8.10;;;5.90;48.30;;;;;;5034517;28;46445;-63
2022/04/22 00:43:18;;;;;;;21.53;7.03;;;5.80;48.70;;;;;;5029734;28;46409;-65
2022/04/22 00:45:44;;;;;;;10.07;6.93;;;5.70;48.90;;;;;;5032702;28;45832;-65
2022/04/22 00:48:10;;;;;;;10.57;6.97;;;5.60;48.90;;;;;;5030544;28;46445;-64
2022/04/22 00:50:36;;;;;;;11.30;6.97;;;5.60;48.80;;;;;;5028481;28;46441;-63
2022/04/22 00:53:02;;;;;;;12.13;7.70;;;5.50;48.80;;;;;;5031613;28;46398;-63
2022/04/22 00:55:29;;;;;;;12.10;7.40;;;5.40;48.70;;;;;;5029418;28;46310;-64
2022/04/22 00:57:56;;;;;;;12.33;7.80;;;5.40;48.70;;;;;;5028668;28;46327;-64
2022/04/22 01:00:21;;;;;;;9.73;6.90;;;5.30;48.50;;;;;;5029481;28;47059;-64
2022/04/22 01:02:47;;;;;;;12.87;7.70;;;5.20;48.50;;;;;;5030155;28;46445;-64
2022/04/22 01:10:42;;;;;;;12.13;7.70;;;5.10;48.40;;;;;;5029459;28;46601;-64
2022/04/22 01:13:08;;;;;;;9.43;6.90;;;5.10;48.50;;;;;;5026991;28;46516;-63
2022/04/22 01:15:35;;;;;;;8.47;6.30;;;5.00;48.40;;;;;;5025878;28;46422;-66
2022/04/22 01:18:01;;;;;;;9.00;6.90;;;5.00;48.30;;;;;;5030531;28;46431;-63
2022/04/22 01:20:27;;;;;;;11.13;6.93;;;5.00;48.30;;;;;;5024494;28;47085;-63
2022/04/22 01:22:52;;;;;;;11.00;8.00;;;4.90;48.30;;;;;;5030983;28;46432;-63
2022/04/22 01:25:18;;;;;;;12.03;7.60;;;4.90;48.30;;;;;;5027900;28;46316;-63
2022/04/22 01:27:48;;;;;;;11.60;7.63;;;4.90;48.30;;;;;;5026767;28;46213;-63
2022/04/22 01:30:14;;;;;;;14.43;7.57;;;4.70;48.60;;;;;;5029928;28;46471;-63
2022/04/22 01:32:39;;;;;;;9.17;7.13;;;4.70;48.90;;;;;;5037610;28;46495;-65
2022/04/22 01:35:05;;;;;;;13.17;7.20;;;4.60;49.00;;;;;;5028135;28;46391;-65
2022/04/22 01:37:32;;;;;;;9.07;7.20;;;4.60;49.20;;;;;;5031797;28;46379;-64
2022/04/22 01:39:58;;;;;;;13.50;8.10;;;4.50;49.30;;;;;;5035590;28;46280;-63
2022/04/22 01:42:23;;;;;;;11.80;7.70;;;4.50;49.40;;;;;;5029600;28;46339;-64
2022/04/22 01:44:49;;;;;;;10.50;7.67;;;4.50;49.40;;;;;;5025514;28;46229;-65
2022/04/22 01:47:15;;;;;;;15.87;9.80;;;4.50;49.40;;;;;;5033948;28;46496;-65
2022/04/22 01:49:41;;;;;;;14.67;8.90;;;4.50;49.20;;;;;;5023946;28;46380;-63
2022/04/22 01:52:07;;;;;;;12.33;8.40;;;4.50;49.40;;;;;;5029157;28;46452;-63
2022/04/22 01:54:32;;;;;;;13.40;8.60;;;4.50;49.50;;;;;;5029017;28;46402;-63
2022/04/22 01:56:58;;;;;;;15.30;8.87;;;4.50;49.70;;;;;;5028002;28;46359;-64
2022/04/22 01:59:24;;;;;;;14.53;8.80;;;4.50;49.80;;;;;;5031303;28;46635;-64
2022/04/22 02:01:49;;;;;;;13.70;9.30;;;4.50;49.90;;;;;;5025214;28;46351;-63
2022/04/22 02:04:15;;;;;;;15.43;9.40;;;4.50;49.90;;;;;;5032177;28;46518;-63
2022/04/22 02:06:40;;;;;;;12.60;8.27;;;4.50;49.90;;;;;;5026683;28;46604;-64
2022/04/22 02:09:06;;;;;;;12.87;8.77;;;4.30;49.90;;;;;;5031604;28;47233;-64
2022/04/22 02:11:32;;;;;;;12.80;9.10;;;4.30;50.20;;;;;;5029930;28;46548;-64
2022/04/22 02:13:58;;;;;;;13.03;8.57;;;4.30;50.30;;;;;;5027417;28;46341;-63
2022/04/22 02:16:23;;;;;;;18.10;8.93;;;4.20;50.50;;;;;;5030507;28;45852;-65
2022/04/22 02:18:49;;;;;;;13.83;8.43;;;4.30;50.90;;;;;;5027983;28;46518;-63
2022/04/22 02:21:15;;;;;;;11.33;7.80;;;4.00;50.80;;;;;;5030537;28;45842;-64
2022/04/22 02:23:41;;;;;;;13.50;7.80;;;3.90;50.70;;;;;;5028604;28;46426;-64
2022/04/22 02:26:06;;;;;;;20.80;7.30;;;4.00;50.90;;;;;;5029522;28;46786;-65
2022/04/22 02:28:33;;;;;;;13.73;8.77;;;3.90;50.90;;;;;;5027980;28;48561;-65
2022/04/22 02:31:11;;;;;;;14.07;9.67;;;3.90;50.90;;;;;;5028634;28;46459;-65
2022/04/22 02:33:39;;;;;;;29.07;16.00;;;3.90;51.00;;;;;;5029307;28;46324;-62
2022/04/22 02:36:06;;;;;;;16.83;10.67;;;3.90;50.90;;;;;;5028309;28;46332;-63
2022/04/22 02:38:33;;;;;;;13.63;9.63;;;3.90;51.00;;;;;;5027022;28;46861;-63
2022/04/22 02:46:28;;;;;;;17.17;9.90;;;3.80;50.80;;;;;;5031997;28;46466;-63
2022/04/22 02:49:00;;;;;;;16.53;9.80;;;3.80;50.90;;;;;;5031348;28;47282;-64
2022/04/22 02:51:27;;;;;;;12.35;8.30;;;3.80;51.00;;;;;;5025249;28;46406;-63
2022/04/22 02:53:53;;;;;;;15.70;10.70;;;3.80;51.10;;;;;;5033881;28;46402;-63
2022/04/22 02:56:20;;;;;;;17.83;10.90;;;3.80;51.10;;;;;;5036934;28;46360;-63
2022/04/22 02:58:47;;;;;;;15.90;9.27;;;3.80;51.10;;;;;;5031680;28;47334;-64
2022/04/22 03:01:15;;;;;;;14.60;10.25;;;3.70;51.10;;;;;;5033752;28;46374;-63
2022/04/22 03:03:42;;;;;;;15.30;9.95;;;3.70;51.10;;;;;;5034736;28;46402;-64
2022/04/22 03:06:08;;;;;;;14.60;9.30;;;3.70;51.20;;;;;;5030891;28;46774;-64
2022/04/22 03:08:34;;;;;;;20.40;10.70;;;3.70;51.20;;;;;;5034565;28;47203;-63
2022/04/22 03:11:00;;;;;;;15.45;10.02;;;3.70;51.20;;;;;;5032232;28;46518;-62
2022/04/22 03:13:26;;;;;;;13.40;9.60;;;3.70;51.30;;;;;;5032822;28;46396;-65
2022/04/22 03:15:52;;;;;;;17.00;9.63;;;3.70;51.40;;;;;;5034222;28;45970;-64
2022/04/22 03:18:19;;;;;;;15.03;9.83;;;3.70;51.30;;;;;;5029312;28;47243;-65
2022/04/22 03:20:45;;;;;;;14.68;8.88;;;3.60;51.50;;;;;;5033920;28;46445;-65
2022/04/22 03:23:10;;;;;;;16.63;9.77;;;3.60;51.50;;;;;;5030704;28;46402;-66
2022/04/22 03:25:36;;;;;;;13.13;8.70;;;3.60;51.50;;;;;;5029627;28;46421;-64
2022/04/22 03:28:04;;;;;;;11.50;8.23;;;3.60;51.50;;;;;;5031979;28;47112;-64
2022/04/22 03:30:30;;;;;;;10.52;7.10;;;3.60;51.50;;;;;;5028215;28;46512;-64
2022/04/22 03:32:55;;;;;;;13.67;9.50;;;3.50;51.50;;;;;;5030865;28;46436;-64
2022/04/22 03:35:21;;;;;;;11.80;8.57;;;3.70;51.60;;;;;;5031320;28;46406;-64
2022/04/22 03:37:46;;;;;;;13.30;8.37;;;3.50;51.60;;;;;;5027719;28;46422;-64
2022/04/22 03:40:12;;;;;;;13.13;8.03;;;3.50;51.70;;;;;;5032658;28;46456;-63
2022/04/22 03:42:38;;;;;;;11.63;8.90;;;3.50;51.70;;;;;;5026209;28;46352;-64
2022/04/22 03:45:04;;;;;;;12.20;7.33;;;3.40;51.60;;;;;;5031117;28;46385;-64
2022/04/22 03:47:30;;;;;;;9.70;6.70;;;3.40;51.70;;;;;;5029416;28;47615;-64
2022/04/22 03:49:56;;;;;;;12.57;7.50;;;3.40;51.60;;;;;;5027113;28;46378;-64
2022/04/22 03:52:22;;;;;;;10.95;7.60;;;3.30;51.60;;;;;;5033129;28;46428;-65
2022/04/22 03:54:47;;;;;;;12.00;7.60;;;3.20;51.60;;;;;;5035008;28;46398;-64
2022/04/22 03:59:57;;;;;;;10.82;6.65;;;3.10;51.90;;;;;;5035677;28;46353;-64
2022/04/22 04:02:23;;;;;;;13.73;7.10;;;2.90;51.90;;;;;;5032426;28;46485;-68
2022/04/22 04:04:50;;;;;;;20.33;7.30;;;2.80;52.10;;;;;;5031275;28;46279;-64
2022/04/22 04:07:16;;;;;;;11.63;7.25;;;2.70;52.20;;;;;;5037999;28;47389;-65
2022/04/22 04:17:55;;;;;;;11.82;7.57;;;2.70;52.10;;;;;;5027748;28;46650;-63
2022/04/22 04:23:17;;;;;;;14.70;7.60;;;2.60;51.70;;;;;;5029244;28;45872;-64
2022/04/22 04:25:47;;;;;;;15.27;8.30;;;2.60;51.80;;;;;;5037327;28;46304;-64
2022/04/22 04:28:13;;;;;;;13.48;8.20;;;2.70;51.70;;;;;;5029306;28;46119;-65
2022/04/22 04:30:43;;;;;;;11.88;8.07;;;2.70;51.50;;;;;;5028222;28;46554;-64
2022/04/22 04:33:10;;;;;;;20.60;9.40;;;2.80;51.50;;;;;;5030260;28;46347;-65
2022/04/22 04:35:38;;;;;;;14.93;8.63;;;2.80;51.30;;;;;;5026273;28;46353;-64
2022/04/22 04:38:06;;;;;;;13.60;8.20;;;2.90;51.10;;;;;;5032758;28;46332;-65
2022/04/22 04:40:32;;;;;;;12.45;8.63;;;3.00;50.90;;;;;;5028042;28;46484;-65
2022/04/22 04:42:58;;;;;;;13.50;8.68;;;3.10;50.90;;;;;;5032075;28;46306;-65
2022/04/22 04:45:23;;;;;;;14.73;8.83;;;3.20;51.00;;;;;;5032640;28;46477;-64
2022/04/22 04:47:49;;;;;;;15.57;8.60;;;3.30;50.90;;;;;;5029387;28;46394;-64
2022/04/22 04:50:15;;;;;;;15.83;8.90;;;3.40;50.90;;;;;;5032971;28;46377;-65
2022/04/22 04:52:41;;;;;;;12.83;8.23;;;3.50;50.80;;;;;;5029272;28;46391;-66
2022/04/22 04:55:09;;;;;;;10.60;7.43;;;3.60;50.90;;;;;;5030224;28;46588;-65
2022/04/22 04:57:35;;;;;;;10.60;7.67;;;3.70;50.70;;;;;;5031112;28;47236;-67
2022/04/22 05:00:08;;;;;;;14.90;8.33;;;3.70;50.50;;;;;;5032374;28;46414;-64
2022/04/22 05:02:34;;;;;;;12.88;7.97;;;3.80;50.50;;;;;;5029037;28;46561;-65
2022/04/22 05:05:01;;;;;;;13.57;7.87;;;3.90;50.50;;;;;;5029793;28;46369;-65
2022/04/22 05:07:26;;;;;;;14.25;8.20;;;4.00;50.60;;;;;;5027251;28;46420;-64
2022/04/22 05:09:53;;;;;;;11.90;7.90;;;4.10;50.40;;;;;;5029205;28;46403;-66
2022/04/22 05:12:18;;;;;;;14.65;7.97;;;4.20;50.40;;;;;;5029410;28;46371;-64
2022/04/22 05:14:47;;;;;;;11.90;7.60;;;4.30;50.30;;;;;;5025961;28;46513;-66
2022/04/22 05:17:13;;;;;;;12.37;7.40;;;4.40;50.20;;;;;;5031126;28;46382;-67
2022/04/22 05:19:38;;;;;;;12.18;7.35;;;4.50;50.10;;;;;;5023395;28;46342;-66
2022/04/22 05:22:04;;;;;;;11.97;7.73;;;4.60;50.10;;;;;;5029992;28;46433;-64
2022/04/22 05:24:31;;;;;;;14.80;8.70;;;4.70;50.00;;;;;;5039185;28;46405;-65
2022/04/22 05:26:57;;;;;;;12.10;7.57;;;4.70;50.10;;;;;;5034161;28;46454;-67
2022/04/22 05:34:51;;;;;;;11.70;8.00;;;5.30;49.90;;;;;;5040510;28;46421;-63
2022/04/22 05:37:17;;;;;;;11.90;8.07;;;5.70;49.70;;;;;;5035748;28;46407;-63
2022/04/22 05:39:43;;;;;;;10.83;7.63;;;6.20;49.40;;;;;;5042533;28;46400;-64
2022/04/22 05:42:09;;;;;;;11.20;7.93;;;6.70;49.60;;;;;;5037600;28;46466;-65
2022/04/22 05:44:35;;;;;;;11.40;8.13;;;7.30;48.80;;;;;;5035715;28;46394;-65
2022/04/22 05:47:00;;;;;;;10.30;7.43;;;8.30;47.60;;;;;;5033189;28;46737;-65
2022/04/22 05:49:27;;;;;;;13.40;8.07;;;9.30;46.50;;;;;;5033246;28;46460;-65
2022/04/22 05:51:54;;;;;;;14.43;9.10;;;10.10;44.10;;;;;;5026493;28;45880;-67
2022/04/22 05:54:20;;;;;;;14.90;8.60;;;10.50;43.60;;;;;;5025374;28;46690;-65
2022/04/22 05:56:46;;;;;;;15.50;9.17;;;10.50;43.30;;;;;;5027168;28;46943;-66
2022/04/22 05:59:11;;;;;;;15.43;10.27;;;10.40;43.60;;;;;;5028068;28;46512;-65
2022/04/22 06:01:37;;;;;;;24.50;12.47;;;10.90;43.50;;;;;;5033235;28;46342;-66
2022/04/22 06:04:02;;;;;;;22.80;12.20;;;11.30;43.30;;;;;;5025427;28;46282;-64
2022/04/22 06:06:28;;;;;;;18.83;14.03;;;11.50;43.00;;;;;;5025316;28;46982;-64
2022/04/22 06:11:38;;;;;;;26.07;13.77;;;11.10;43.80;;;;;;5022529;28;46927;-64
2022/04/22 06:14:04;;;;;;;21.37;13.87;;;10.90;44.00;;;;;;5031022;28;46316;-64
2022/04/22 06:16:29;;;;;;;19.27;13.00;;;10.70;44.30;;;;;;5031551;28;46414;-64
2022/04/22 06:18:55;;;;;;;22.07;14.53;;;10.70;44.00;;;;;;5029427;28;46367;-64
2022/04/22 06:21:21;;;;;;;19.60;13.77;;;10.50;44.10;;;;;;5032892;28;46287;-66
2022/04/22 06:23:46;;;;;;;21.37;14.50;;;10.20;44.40;;;;;;5036755;28;46380;-64
2022/04/22 06:26:12;;;;;;;28.30;14.53;;;9.70;45.90;;;;;;5027071;28;47035;-64
2022/04/22 06:28:38;;;;;;;22.77;15.10;;;9.40;46.10;;;;;;5035397;28;46867;-64
2022/04/22 06:31:03;;;;;;;23.00;15.00;;;9.20;46.60;;;;;;5029146;28;46619;-65
2022/04/22 06:33:29;;;;;;;26.23;16.40;;;9.10;46.70;;;;;;5029008;28;46301;-65
2022/04/22 06:35:59;;;;;;;21.43;14.77;;;9.30;46.80;;;;;;5033118;28;47072;-64
2022/04/22 06:38:26;;;;;;;24.43;16.00;;;9.20;46.50;;;;;;5027800;28;46576;-66
2022/04/22 06:46:20;;;;;;;21.80;15.10;;;9.40;45.80;;;;;;5034941;28;46760;-65
2022/04/22 06:48:46;;;;;;;22.73;15.43;;;9.40;45.90;;;;;;5035464;28;46468;-65
2022/04/22 06:51:13;;;;;;;22.17;15.50;;;9.10;46.80;;;;;;5030787;28;46454;-66
2022/04/22 06:53:39;;;;;;;31.07;17.30;;;9.00;47.30;;;;;;5029469;28;46962;-64
2022/04/22 06:56:08;;;;;;;29.63;17.30;;;8.70;48.10;;;;;;5028390;28;46229;-64
2022/04/22 06:58:40;;;;;;;24.50;16.53;;;8.60;48.60;;;;;;5027418;28;46366;-64
2022/04/22 07:01:07;;;;;;;24.60;15.60;;;8.50;49.70;;;;;;5028269;28;46388;-65
2022/04/22 07:03:33;;;;;;;25.53;16.73;;;8.60;49.90;;;;;;5029101;28;46426;-64
2022/04/22 07:05:58;;;;;;;23.23;15.97;;;8.70;49.80;;;;;;5029685;28;48006;-66
2022/04/22 07:08:24;;;;;;;22.07;14.90;;;8.80;49.80;;;;;;5028416;28;46397;-65
2022/04/22 07:10:52;;;;;;;25.20;15.27;;;9.00;49.90;;;;;;5026261;28;46346;-64
2022/04/22 07:13:18;;;;;;;24.37;15.70;;;9.10;49.80;;;;;;5035238;28;46501;-64
2022/04/22 07:15:46;;;;;;;23.40;15.37;;;9.30;49.60;;;;;;5029732;28;47159;-64
2022/04/22 07:18:13;;;;;;;22.13;14.50;;;9.60;49.10;;;;;;5035788;28;46412;-65
2022/04/22 07:20:39;;;;;;;22.50;14.70;;;9.70;48.80;;;;;;5026648;28;46362;-65
2022/04/22 07:23:05;;;;;;;23.43;15.10;;;9.50;49.10;;;;;;5027851;28;46370;-65
2022/04/22 07:25:31;;;;;;;23.20;14.83;;;9.60;49.40;;;;;;5028283;28;47137;-64
2022/04/22 07:27:58;;;;;;;22.70;14.17;;;9.60;49.10;;;;;;5029097;28;46502;-65
2022/04/22 07:30:25;;;;;;;20.53;14.40;;;9.60;49.30;;;;;;5030939;28;46506;-65
2022/04/22 07:32:51;;;;;;;21.90;13.87;;;9.70;48.90;;;;;;5032951;28;45848;-66
2022/04/22 07:35:21;;;;;;;25.03;13.90;;;9.90;48.50;;;;;;5028728;28;47528;-66
2022/04/22 07:37:48;;;;;;;22.50;14.30;;;10.10;47.20;;;;;;5027613;28;46642;-65
2022/04/22 07:40:16;;;;;;;19.17;13.27;;;10.20;47.10;;;;;;5033396;28;46338;-66
2022/04/22 07:46:46;;;;;;;22.17;13.60;;;10.20;46.90;;;;;;5026085;28;46429;-66
2022/04/22 07:48:19;;;;;;;24.27;13.53;;;10.20;47.10;;;;;;5027605;28;46431;-65
2022/04/22 07:50:46;;;;;;;20.67;13.43;;;10.30;46.80;;;;;;5036469;28;46449;-66
2022/04/22 07:53:12;;;;;;;24.63;13.10;;;10.20;46.80;;;;;;5026264;28;46526;-66
2022/04/22 07:55:37;;;;;;;20.83;13.33;;;10.30;46.70;;;;;;5032035;28;46300;-63
2022/04/22 07:58:03;;;;;;;17.43;12.70;;;10.50;46.40;;;;;;5032522;28;46269;-65
2022/04/22 08:00:28;;;;;;;17.80;12.60;;;10.50;46.00;;;;;;5038252;28;46412;-65
2022/04/22 08:02:54;;;;;;;19.53;13.03;;;10.50;46.10;;;;;;5028022;28;46653;-66
2022/04/22 08:05:19;;;;;;;18.53;12.10;;;10.50;45.90;;;;;;5034602;28;46979;-63
2022/04/22 08:07:45;;;;;;;18.47;12.77;;;10.50;45.70;;;;;;5032139;28;45814;-66
2022/04/22 08:10:11;;;;;;;17.73;13.27;;;10.50;45.50;;;;;;5036074;28;46439;-65
2022/04/22 08:12:37;;;;;;;16.73;11.53;;;10.60;45.50;;;;;;5034286;28;46484;-65
2022/04/22 08:15:04;;;;;;;18.20;12.27;;;10.90;45.30;;;;;;5038246;28;46925;-65
2022/04/22 08:17:36;;;;;;;16.87;12.10;;;10.90;44.90;;;;;;5037692;28;45857;-68
2022/04/22 08:20:05;;;;;;;16.90;12.10;;;11.00;44.80;;;;;;5031112;28;46562;-67
2022/04/22 08:22:30;;;;;;;21.00;12.60;;;11.10;44.20;;;;;;5030384;28;46445;-64
2022/04/22 08:24:56;;;;;;;18.60;12.90;;;10.90;44.10;;;;;;5030760;28;46436;-66
2022/04/22 08:27:23;;;;;;;17.07;11.53;;;10.80;44.50;;;;;;5026435;28;46397;-65
2022/04/22 08:29:49;;;;;;;19.50;12.60;;;10.90;44.30;;;;;;5031637;28;46549;-64
2022/04/22 08:32:14;;;;;;;18.10;12.20;;;10.90;44.00;;;;;;5028655;28;46600;-67
2022/04/22 08:34:40;;;;;;;17.57;12.07;;;10.90;43.70;;;;;;5027520;28;47064;-62
2022/04/22 08:37:06;;;;;;;19.27;12.13;;;10.90;43.60;;;;;;5030899;28;46481;-64
2022/04/22 08:39:32;;;;;;;17.77;12.00;;;11.10;43.70;;;;;;5027754;28;46437;-65
2022/04/22 08:42:00;;;;;;;19.07;12.30;;;11.30;43.40;;;;;;5031193;28;45978;-65
2022/04/22 08:44:28;;;;;;;16.77;12.23;;;11.50;43.00;;;;;;5030552;28;46607;-65
2022/04/22 08:52:25;;;;;;;14.67;11.37;;;11.50;42.70;;;;;;5039148;28;46474;-65
2022/04/22 08:54:53;;;;;;;15.40;11.30;;;11.80;42.30;;;;;;5034716;28;46416;-64
2022/04/22 08:57:20;;;;;;;14.37;11.10;;;11.80;41.80;;;;;;5037482;28;46299;-64
2022/04/22 08:59:46;;;;;;;17.80;12.17;;;11.70;42.00;;;;;;5032924;28;46469;-64
2022/04/22 09:02:18;;;;;;;22.97;11.20;;;11.90;41.80;;;;;;5032957;28;46562;-65
2022/04/22 09:04:45;;;;;;;16.73;9.80;;;12.00;40.90;;;;;;5034291;28;46209;-65
2022/04/22 09:07:13;;;;;;;21.10;10.97;;;12.00;40.20;;;;;;5032080;28;46497;-64
2022/04/22 09:09:42;;;;;;;21.03;11.27;;;12.00;40.60;;;;;;5031988;28;46272;-64
2022/04/22 09:12:12;;;;;;;14.17;10.40;;;12.00;40.20;;;;;;5031121;28;46448;-63
2022/04/22 09:14:45;;;;;;;15.50;11.03;;;11.90;40.20;;;;;;5028810;28;46727;-64
2022/04/22 09:17:15;;;;;;;14.90;10.80;;;11.80;40.00;;;;;;5033328;28;46549;-64
2022/04/22 09:19:44;;;;;;;22.70;10.93;;;11.80;40.00;;;;;;5035355;28;45830;-63
2022/04/22 09:22:11;;;;;;;15.37;10.83;;;12.10;40.40;;;;;;5028091;28;46393;-63
2022/04/22 09:24:46;;;;;;;15.73;10.80;;;12.40;40.10;;;;;;5031164;28;46355;-65
2022/04/22 09:27:13;;;;;;;15.13;10.80;;;12.40;39.20;;;;;;5030072;28;46421;-65
2022/04/22 09:29:53;;;;;;;14.60;10.47;;;12.40;39.00;;;;;;5031954;28;46448;-68
2022/04/22 09:32:31;;;;;;;14.93;10.93;;;12.40;39.10;;;;;;5025322;28;46717;-67
2022/04/22 09:35:07;;;;;;;14.47;10.57;;;12.30;39.30;;;;;;5032870;28;46622;-66
2022/04/22 09:43:01;;;;;;;14.23;10.40;;;12.50;38.40;;;;;;5031171;28;46469;-65
2022/04/22 09:45:38;;;;;;;13.90;10.40;;;12.50;38.50;;;;;;5029396;28;46495;-66
2022/04/22 09:48:17;;;;;;;12.33;9.00;;;12.70;38.30;;;;;;5027655;28;46484;-65
2022/04/22 09:50:56;;;;;;;14.30;11.30;;;13.00;38.10;;;;;;5034120;28;46509;-64
2022/04/22 09:53:33;;;;;;;14.27;10.83;;;13.00;37.40;;;;;;5027611;28;46354;-67
2022/04/22 09:56:06;;;;;;;16.43;10.50;;;12.80;37.50;;;;;;5030634;28;46363;-66
2022/04/22 09:58:31;;;;;;;13.60;10.57;;;12.70;37.40;;;;;;5028441;28;46468;-65
2022/04/22 10:01:03;;;;;;;18.37;9.80;;;12.80;37.60;;;;;;5028871;28;46537;-65
2022/04/22 10:03:33;;;;;;;18.60;10.07;;;12.90;37.20;;;;;;5024761;28;46432;-66
2022/04/22 10:05:59;;;;;;;17.80;9.20;;;12.80;36.80;;;;;;5031617;28;46338;-65
2022/04/22 10:08:28;;;;;;;14.47;8.73;;;12.80;36.70;;;;;;5029676;28;45870;-65
2022/04/22 10:10:57;;;;;;;14.87;9.77;;;12.80;36.10;;;;;;5028822;28;46464;-64
2022/04/22 10:13:30;;;;;;;13.30;9.50;;;13.00;36.00;;;;;;5028488;28;46824;-64
2022/04/22 10:15:56;;;;;;;12.97;9.00;;;13.10;35.50;;;;;;5023983;28;46973;-64
2022/04/22 10:28:45;;;;;;;14.87;9.30;;;13.50;33.90;;;;;;5258442;22;46336;-61
2022/04/22 10:31:12;;;;;;;14.13;9.10;;;13.50;34.20;;;;;;4969701;28;46452;-63
2022/04/22 10:33:43;;;;;;;14.03;10.23;;;13.40;34.40;;;;;;4972564;28;46534;-63
2022/04/22 10:36:12;;;;;;;14.60;9.93;;;13.40;34.20;;;;;;4971362;28;47002;-63
2022/04/22 10:38:39;;;;;;;15.63;10.30;;;13.50;33.90;;;;;;4969777;28;46455;-63
2022/04/22 10:41:22;;;;;;;17.27;9.50;;;13.70;33.90;;;;;;4974144;28;46384;-63
2022/04/22 10:49:40;;;;;;;15.53;9.80;;;13.70;33.70;;;;;;4969084;28;45845;-63
2022/04/22 10:52:13;;;;;;;14.20;9.90;;;13.80;33.30;;;;;;4964145;28;46353;-63
2022/04/22 10:54:58;;;;;;;15.90;10.33;;;14.00;32.90;;;;;;4968787;28;46427;-63
2022/04/22 11:00:27;;;;;;;16.13;9.50;;;13.70;33.00;;;;;;5405916;23;46828;-78
2022/04/22 11:03:01;;;;;;;16.53;9.73;;;13.80;33.50;;;;;;4969150;28;46603;-78
2022/04/22 11:05:30;;;;;;;15.87;10.77;;;14.10;33.10;;;;;;4960370;28;46473;-79
2022/04/22 11:07:57;;;;;;;17.00;10.40;;;13.90;32.80;;;;;;4971265;28;46429;-77
2022/04/22 11:10:26;;;;;;;18.87;10.90;;;13.90;32.90;;;;;;4967620;28;46413;-78
2022/04/22 11:13:02;;;;;;;14.77;10.03;;;14.10;32.80;;;;;;4959203;28;46473;-78
2022/04/22 11:15:56;;;;;;;16.80;11.13;;;14.30;33.10;;;;;;4974471;28;46450;-79
2022/04/22 11:18:22;;;;;;;13.57;10.60;;;14.50;32.10;;;;;;4955596;28;46993;-75
2022/04/22 11:20:52;;;;;;;13.23;8.93;;;14.70;31.90;;;;;;4968241;28;46478;-78
2022/04/22 11:23:18;;;;;;;14.33;10.47;;;14.60;31.30;;;;;;4968831;28;45971;-77
2022/04/22 11:25:46;;;;;;;17.70;11.33;;;14.20;31.50;;;;;;4972129;28;46514;-79
2022/04/22 11:28:12;;;;;;;18.07;11.37;;;14.10;32.00;;;;;;4971882;28;46608;-75
2022/04/22 11:30:37;;;;;;;13.57;10.53;;;14.30;32.10;;;;;;4975815;28;46345;-78
2022/04/22 11:33:23;;;;;;;14.90;11.57;;;14.50;31.80;;;;;;4977216;28;46386;-77
2022/04/22 11:35:53;;;;;;;15.30;10.70;;;14.50;31.70;;;;;;4973905;28;46329;-79
2022/04/22 11:38:20;;;;;;;17.57;10.60;;;14.70;31.90;;;;;;4958918;28;47929;-78
2022/04/22 11:40:49;;;;;;;17.43;10.50;;;14.90;31.60;;;;;;4976622;28;46456;-78
2022/04/22 11:43:15;;;;;;;14.20;10.60;;;15.20;31.40;;;;;;4971805;28;45906;-79
2022/04/22 11:45:43;;;;;;;14.87;10.43;;;15.30;31.00;;;;;;4975418;28;46341;-77
2022/04/22 11:48:14;;;;;;;17.47;10.73;;;15.50;30.10;;;;;;4976551;28;47326;-79
2022/04/22 11:50:44;;;;;;;14.73;10.83;;;15.70;30.00;;;;;;4976163;28;46109;-77
2022/04/22 11:53:15;;;;;;;16.20;11.23;;;15.70;30.00;;;;;;4975088;28;46435;-78
2022/04/22 11:55:42;;;;;;;14.43;11.00;;;15.80;30.20;;;;;;4972170;28;45746;-78
2022/04/22 11:58:11;;;;;;;15.87;11.17;;;16.00;29.70;;;;;;4974308;28;46522;-78
2022/04/22 12:06:15;;;;;;;16.03;11.20;;;15.70;29.70;;;;;;4965698;28;46492;-79
2022/04/22 12:08:57;;;;;;;15.00;11.53;;;15.80;29.80;;;;;;4978286;28;46677;-80
2022/04/22 12:11:24;;;;;;;16.07;12.00;;;15.90;29.60;;;;;;4970260;28;46603;-80
2022/04/22 12:13:51;;;;;;;14.73;11.20;;;16.20;29.40;;;;;;4968419;28;46567;-78
2022/04/22 12:16:23;;;;;;;17.20;12.00;;;16.30;28.90;;;;;;4973926;28;45877;-80
2022/04/22 12:18:50;;;;;;;13.67;10.47;;;16.00;28.60;;;;;;4975172;28;46492;-79
2022/04/22 12:21:17;;;;;;;17.77;10.20;;;16.20;28.90;;;;;;4975632;28;46354;-78
2022/04/22 12:23:45;;;;;;;16.63;11.37;;;16.30;28.50;;;;;;4968305;28;46351;-77
2022/04/22 12:26:30;;;;;;;16.73;11.27;;;16.30;28.60;;;;;;4975048;28;46527;-78
2022/04/22 12:29:05;;;;;;;14.80;11.17;;;16.30;28.90;;;;;;4970613;28;46624;-78
2022/04/22 12:31:33;;;;;;;14.53;10.80;;;16.60;28.90;;;;;;4956892;28;45855;-79
2022/04/22 12:34:06;;;;;;;17.17;11.10;;;17.00;28.60;;;;;;4969879;28;46466;-78
2022/04/22 12:36:52;;;;;;;18.80;11.37;;;17.30;28.10;;;;;;4955953;28;46411;-77
2022/04/22 12:39:36;;;;;;;16.60;11.23;;;17.40;27.80;;;;;;4968779;28;46414;-78
2022/04/22 12:42:03;;;;;;;17.63;10.90;;;17.40;27.60;;;;;;4972693;28;46436;-79
2022/04/22 12:44:29;;;;;;;14.10;11.00;;;17.10;27.50;;;;;;4968213;28;46502;-79
2022/04/22 12:52:34;;;;;;;18.73;12.03;;;17.10;27.80;;;;;;4968918;28;46392;-76
2022/04/22 12:55:05;;;;;;;15.27;11.73;;;17.40;27.40;;;;;;4957140;28;46473;-80
2022/04/22 12:57:31;;;;;;;18.03;12.13;;;17.60;26.80;;;;;;4956072;28;46543;-78
2022/04/22 12:59:57;;;;;;;16.67;11.13;;;17.70;26.70;;;;;;4950733;28;48347;-79
2022/04/22 13:02:32;;;;;;;16.50;11.17;;;17.90;26.60;;;;;;4976616;28;46464;-77
2022/04/22 13:04:58;;;;;;;17.23;12.20;;;17.90;26.20;;;;;;4952169;28;45896;-78
2022/04/22 13:07:25;;;;;;;18.03;11.73;;;17.60;26.00;;;;;;4968939;28;46394;-78
2022/04/22 13:09:51;;;;;;;25.13;13.20;;;17.40;26.40;;;;;;4972735;28;47186;-78
2022/04/22 13:12:17;;;;;;;14.10;10.97;;;17.60;26.30;;;;;;4970633;28;46467;-78
2022/04/22 13:14:43;;;;;;;22.13;13.00;;;17.50;26.20;;;;;;4974859;28;46522;-77
2022/04/22 13:17:19;;;;;;;16.00;11.70;;;17.50;26.10;;;;;;4964589;28;46303;-79
2022/04/22 13:19:44;;;;;;;22.77;11.67;;;17.50;26.00;;;;;;4968630;28;46417;-78
2022/04/22 13:22:10;;;;;;;14.90;11.57;;;17.50;25.70;;;;;;4953647;28;46352;-78
2022/04/22 13:24:35;;;;;;;15.47;11.30;;;17.60;25.40;;;;;;4966879;28;49753;-78
2022/04/22 13:27:01;;;;;;;13.90;10.53;;;17.70;25.30;;;;;;4970497;28;46389;-78
2022/04/22 13:29:27;;;;;;;15.70;10.93;;;17.80;25.40;;;;;;4971676;28;47037;-81
2022/04/22 13:31:52;;;;;;;15.37;9.57;;;18.10;24.30;;;;;;4973728;28;46057;-78
2022/04/22 13:34:18;;;;;;;12.00;9.47;;;18.20;24.40;;;;;;4980635;28;46449;-79
2022/04/22 13:36:43;;;;;;;14.83;9.83;;;18.40;24.00;;;;;;4954764;28;45858;-78
2022/04/22 13:39:09;;;;;;;13.80;10.63;;;18.40;23.70;;;;;;4974942;28;47011;-77
2022/04/22 13:41:34;;;;;;;13.50;9.27;;;18.30;23.50;;;;;;4975979;28;46489;-79
2022/04/22 13:44:00;;;;;;;13.57;9.47;;;18.30;23.70;;;;;;4954536;28;46460;-78
2022/04/22 13:54:38;;;;;;;13.60;7.90;;;18.60;23.20;;;;;;4978201;28;46365;-80
2022/04/22 13:57:03;;;;;;;14.83;8.50;;;18.70;23.40;;;;;;4971409;28;46444;-79
2022/04/22 13:59:29;;;;;;;12.90;8.10;;;18.50;23.00;;;;;;4978324;28;46991;-78
2022/04/22 14:01:54;;;;;;;15.90;8.43;;;18.40;22.70;;;;;;4970150;28;46393;-78
2022/04/22 14:04:20;;;;;;;12.03;8.17;;;18.30;23.00;;;;;;4951439;28;46668;-78
2022/04/22 14:06:47;;;;;;;13.33;9.20;;;18.10;22.90;;;;;;4972760;28;46481;-77
2022/04/22 14:09:13;;;;;;;10.00;7.73;;;18.30;23.20;;;;;;4966000;28;46073;-78
2022/04/22 14:11:39;;;;;;;10.37;7.50;;;18.40;23.50;;;;;;4971004;28;46323;-79
2022/04/22 14:14:04;;;;;;;12.10;7.97;;;18.40;23.10;;;;;;4973860;28;46447;-79